createdAt,value
2022-08-22T00:02:08.922Z,97134.84
2022-08-22T00:02:47.663Z,97136.06
2022-08-22T00:02:49.120Z,97127.88
2022-08-22T00:02:54.996Z,97103.93
2022-08-22T00:02:56.596Z,97128.45
2022-08-22T00:03:00.232Z,97136.18
2022-08-22T00:03:08.826Z,97135.77
2022-08-22T00:04:41.763Z,97131.52
2022-08-22T00:07:18.161Z,97130.60
2022-08-22T00:09:58.461Z,97136.10
2022-08-22T00:12:45.085Z,97132.57
2022-08-22T00:15:42.077Z,97129.36
2022-08-22T00:18:11.418Z,97125.53
2022-08-22T00:20:49.481Z,97123.16
2022-08-22T00:23:20.618Z,97119.06
2022-08-22T00:25:54.591Z,97120.11
2022-08-22T00:28:30.040Z,97121.05
2022-08-22T00:30:58.155Z,97125.02
2022-08-22T00:33:30.741Z,97118.37
2022-08-22T00:36:05.605Z,97116.95
2022-08-22T00:38:41.297Z,97117.52
2022-08-22T00:41:28.939Z,97115.14
2022-08-22T00:43:56.655Z,97112.71
2022-08-22T00:46:24.395Z,97117.20
2022-08-22T00:48:52.130Z,97116.16
2022-08-22T00:51:22.641Z,97113.84
2022-08-22T00:54:06.853Z,97116.56
2022-08-22T00:56:55.761Z,97119.99
2022-08-22T00:59:29.803Z,97125.06
2022-08-22T01:02:16.780Z,97126.86
2022-08-22T01:05:11.232Z,97126.15
2022-08-22T01:08:08.362Z,97127.08
2022-08-22T01:10:45.906Z,97125.60
2022-08-22T01:13:30.954Z,97125.17
2022-08-22T01:16:20.631Z,97124.09
2022-08-22T01:18:58.839Z,97135.84
2022-08-22T01:21:37.040Z,97142.20
2022-08-22T01:24:10.636Z,97148.42
2022-08-22T01:26:56.750Z,97157.83
2022-08-22T01:29:44.109Z,97163.98
2022-08-22T01:32:30.496Z,97155.55
2022-08-22T01:35:24.404Z,97151.39
2022-08-22T01:38:10.893Z,97153.59
2022-08-22T01:40:57.988Z,97152.59
2022-08-22T01:43:58.876Z,97149.41
2022-08-22T01:46:23.806Z,97140.16
2022-08-22T01:48:55.848Z,97135.41
2022-08-22T01:51:58.920Z,97134.02
2022-08-22T01:54:34.495Z,97137.00
2022-08-22T01:57:05.433Z,97137.20
2022-08-22T01:59:38.627Z,97133.80
2022-08-22T02:02:13.378Z,97127.98
2022-08-22T02:04:41.166Z,97125.96
2022-08-22T02:07:09.063Z,97127.30
2022-08-22T02:09:46.700Z,97118.21
2022-08-22T02:12:33.603Z,97115.52
2022-08-22T02:15:13.932Z,97113.42
2022-08-22T02:17:53.833Z,97110.95
2022-08-22T02:20:21.709Z,97109.39
2022-08-22T02:22:52.644Z,97115.98
2022-08-22T02:25:32.985Z,97124.60
2022-08-22T02:28:24.048Z,97122.11
2022-08-22T02:31:00.415Z,97120.38
2022-08-22T02:33:46.757Z,97126.10
2022-08-22T02:36:18.324Z,97129.84
2022-08-22T02:38:56.107Z,97131.06
2022-08-22T02:41:37.691Z,97134.77
2022-08-22T02:44:14.626Z,97134.20
2022-08-22T02:47:12.661Z,97133.89
2022-08-22T02:49:43.826Z,97136.32
2022-08-22T02:52:25.378Z,97140.22
2022-08-22T02:55:28.459Z,97143.02
2022-08-22T02:58:03.009Z,97147.62
2022-08-22T03:00:41.100Z,97148.64
2022-08-22T03:03:17.575Z,97151.57
2022-08-22T03:05:45.460Z,97160.10
2022-08-22T03:08:31.755Z,97161.40
2022-08-22T03:11:18.347Z,97155.29
2022-08-22T03:13:49.135Z,97156.02
2022-08-22T03:16:22.689Z,97156.50
2022-08-22T03:18:56.657Z,97157.65
2022-08-22T03:21:30.444Z,97156.02
2022-08-22T03:24:03.875Z,97151.45
2022-08-22T03:26:37.256Z,97149.08
2022-08-22T03:29:20.751Z,97153.25
2022-08-22T03:32:07.763Z,97157.17
2022-08-22T03:34:36.335Z,97162.91
2022-08-22T03:37:16.137Z,97159.69
2022-08-22T03:40:00.061Z,97162.65
2022-08-22T03:42:44.687Z,97162.75
2022-08-22T03:45:15.732Z,97158.00
2022-08-22T03:47:52.227Z,97157.46
2022-08-22T03:50:26.327Z,97158.89
2022-08-22T03:53:15.298Z,97162.78
2022-08-22T03:56:07.601Z,97163.26
2022-08-22T03:58:41.365Z,97163.11
2022-08-22T04:01:15.013Z,97163.36
2022-08-22T04:03:42.800Z,97163.35
2022-08-22T04:06:27.390Z,97160.04
2022-08-22T04:09:04.814Z,97159.73
2022-08-22T04:11:39.278Z,97161.83
2022-08-22T04:14:16.060Z,97159.70
2022-08-22T04:16:56.960Z,97160.64
2022-08-22T04:19:24.716Z,97157.98
2022-08-22T04:22:07.047Z,97156.28
2022-08-22T04:24:37.625Z,97153.14
2022-08-22T04:27:05.391Z,97141.95
2022-08-22T04:29:39.367Z,97142.05
2022-08-22T04:32:17.811Z,97142.09
2022-08-22T04:35:08.651Z,97145.23
2022-08-22T04:37:43.717Z,97142.52
2022-08-22T04:40:20.043Z,97145.70
2022-08-22T04:42:53.533Z,97148.05
2022-08-22T04:45:30.057Z,97152.80
2022-08-22T04:48:05.139Z,97162.50
2022-08-22T04:50:43.308Z,97163.56
2022-08-22T04:53:12.446Z,97166.89
2022-08-22T04:55:47.144Z,97168.27
2022-08-22T04:58:38.275Z,97168.40
2022-08-22T05:01:16.742Z,97172.00
2022-08-22T05:03:52.120Z,97177.57
2022-08-22T05:06:22.301Z,97179.77
2022-08-22T05:08:53.889Z,97184.88
2022-08-22T05:11:23.433Z,97185.80
2022-08-22T05:14:00.172Z,97188.25
2022-08-22T05:16:39.214Z,97190.52
2022-08-22T05:19:31.135Z,97192.63
2022-08-22T05:22:01.113Z,97196.56
2022-08-22T05:24:31.778Z,97193.73
2022-08-22T05:27:03.393Z,97192.39
2022-08-22T05:29:32.744Z,97190.09
2022-08-22T05:32:05.823Z,97191.91
2022-08-22T05:34:39.171Z,97194.06
2022-08-22T05:37:14.235Z,97189.77
2022-08-22T05:39:47.307Z,97195.17
2022-08-22T05:42:37.530Z,97194.19
2022-08-22T05:45:06.943Z,97196.88
2022-08-22T05:47:41.795Z,97199.50
2022-08-22T05:50:18.560Z,97196.70
2022-08-22T05:53:08.540Z,97195.62
2022-08-22T05:55:49.032Z,97192.98
2022-08-22T05:58:35.547Z,97187.81
2022-08-22T06:01:20.693Z,97187.91
2022-08-22T06:03:48.952Z,97192.11
2022-08-22T06:06:18.379Z,97191.77
2022-08-22T06:08:55.860Z,97195.21
2022-08-22T06:11:33.691Z,97201.99
2022-08-22T06:14:13.552Z,97207.26
2022-08-22T06:16:48.548Z,97206.08
2022-08-22T06:19:19.917Z,97207.02
2022-08-22T06:21:50.043Z,97199.56
2022-08-22T06:24:24.161Z,97199.54
2022-08-22T06:26:53.545Z,97199.09
2022-08-22T06:29:36.493Z,97196.05
2022-08-22T06:32:09.396Z,97195.41
2022-08-22T06:34:39.854Z,97200.73
2022-08-22T06:37:10.411Z,97203.80
2022-08-22T06:39:43.619Z,97205.23
2022-08-22T06:42:15.994Z,97206.55
2022-08-22T06:44:47.627Z,97204.73
2022-08-22T06:47:23.248Z,97210.05
2022-08-22T06:49:52.951Z,97213.05
2022-08-22T06:52:23.487Z,97213.55
2022-08-22T06:54:57.604Z,97214.77
2022-08-22T06:57:30.431Z,97224.90
2022-08-22T06:59:59.294Z,97225.73
2022-08-22T07:02:33.667Z,97222.06
2022-08-22T07:05:01.854Z,97222.16
2022-08-22T07:07:29.614Z,97217.29
2022-08-22T07:09:57.782Z,97221.38
2022-08-22T07:12:31.026Z,97219.84
2022-08-22T07:15:01.042Z,97218.56
2022-08-22T07:17:30.664Z,97226.98
2022-08-22T07:20:01.675Z,97229.71
2022-08-22T07:22:31.263Z,97229.88
2022-08-22T07:25:11.706Z,97228.70
2022-08-22T07:27:54.756Z,97230.38
2022-08-22T07:30:27.352Z,97230.45
2022-08-22T07:33:25.219Z,97234.75
2022-08-22T07:36:01.936Z,97233.95
2022-08-22T07:38:43.035Z,97230.52
2022-08-22T07:41:20.219Z,97231.84
2022-08-22T07:43:50.688Z,97229.87
2022-08-22T07:46:18.400Z,97229.73
2022-08-22T07:49:08.034Z,97234.02
2022-08-22T07:51:43.283Z,97230.67
2022-08-22T07:54:15.723Z,97227.86
2022-08-22T07:56:46.538Z,97232.20
2022-08-22T07:59:17.677Z,97228.83
2022-08-22T08:01:47.768Z,97225.83
2022-08-22T08:04:19.096Z,97230.69
2022-08-22T08:06:49.061Z,97226.45
2022-08-22T08:09:19.032Z,97226.10
2022-08-22T08:11:49.470Z,97225.52
2022-08-22T08:14:20.024Z,97216.69
2022-08-22T08:17:07.401Z,97212.76
2022-08-22T08:19:38.434Z,97217.35
2022-08-22T08:22:06.790Z,97214.38
2022-08-22T08:24:40.805Z,97221.72
2022-08-22T08:27:33.889Z,97217.05
2022-08-22T08:30:15.795Z,97216.04
2022-08-22T08:32:47.702Z,97218.64
2022-08-22T08:35:16.673Z,97218.53
2022-08-22T08:37:49.595Z,97214.96
2022-08-22T08:40:48.538Z,97215.54
2022-08-22T08:43:29.673Z,97211.73
2022-08-22T08:46:09.543Z,97214.15
2022-08-22T08:48:50.311Z,97215.58
2022-08-22T08:51:36.409Z,97215.13
2022-08-22T08:54:05.643Z,97215.44
2022-08-22T08:56:38.177Z,97215.16
2022-08-22T08:59:27.258Z,97211.11
2022-08-22T09:01:57.798Z,97214.70
2022-08-22T09:04:25.581Z,97212.92
2022-08-22T09:06:56.674Z,97216.05
2022-08-22T09:09:33.451Z,97210.94
2022-08-22T09:12:17.157Z,97215.42
2022-08-22T09:15:03.483Z,97215.38
2022-08-22T09:17:39.724Z,97215.92
2022-08-22T09:20:17.632Z,97212.71
2022-08-22T09:22:58.420Z,97208.39
2022-08-22T09:25:39.902Z,97205.25
2022-08-22T09:28:19.897Z,97205.41
2022-08-22T09:31:17.002Z,97205.91
2022-08-22T09:34:05.133Z,97200.39
2022-08-22T09:36:44.683Z,97204.62
2022-08-22T09:39:18.415Z,97195.27
2022-08-22T09:42:00.142Z,97197.67
2022-08-22T09:44:52.442Z,97195.46
2022-08-22T09:47:27.208Z,97191.62
2022-08-22T09:50:09.887Z,97191.27
2022-08-22T09:52:46.975Z,97188.09
2022-08-22T09:55:35.690Z,97179.58
2022-08-22T09:58:11.362Z,97179.81
2022-08-22T10:00:47.480Z,97171.78
2022-08-22T10:03:22.871Z,97173.64
2022-08-22T10:05:57.156Z,97174.32
2022-08-22T10:08:52.346Z,97171.61
2022-08-22T10:11:28.861Z,97165.77
2022-08-22T10:14:08.260Z,97160.18
2022-08-22T10:16:41.976Z,97163.39
2022-08-22T10:19:28.503Z,97166.35
2022-08-22T10:22:02.570Z,97167.48
2022-08-22T10:24:43.703Z,97165.04
2022-08-22T10:27:15.129Z,97161.34
2022-08-22T10:29:46.097Z,97159.60
2022-08-22T10:32:17.329Z,97162.94
2022-08-22T10:34:48.519Z,97161.16
2022-08-22T10:37:23.731Z,97164.72
2022-08-22T10:40:02.552Z,97165.79
2022-08-22T10:42:35.750Z,97168.38
2022-08-22T10:45:23.727Z,97163.35
2022-08-22T10:48:08.591Z,97165.21
2022-08-22T10:50:50.088Z,97163.39
2022-08-22T10:53:30.379Z,97158.70
2022-08-22T10:56:04.572Z,97159.90
2022-08-22T10:58:36.613Z,97159.62
2022-08-22T11:01:15.133Z,97153.17
2022-08-22T11:03:55.708Z,97151.89
2022-08-22T11:06:26.582Z,97149.21
2022-08-22T11:09:00.381Z,97154.13
2022-08-22T11:11:40.415Z,97161.23
2022-08-22T11:14:24.684Z,97155.04
2022-08-22T11:17:23.654Z,97154.79
2022-08-22T11:19:55.232Z,97147.02
2022-08-22T11:22:23.636Z,97138.48
2022-08-22T11:25:12.408Z,97137.86
2022-08-22T11:27:46.875Z,97136.63
2022-08-22T11:30:29.449Z,97127.45
2022-08-22T11:33:00.943Z,97128.56
2022-08-22T11:35:37.147Z,97125.46
2022-08-22T11:38:20.397Z,97121.34
2022-08-22T11:40:52.182Z,97124.41
2022-08-22T11:43:40.344Z,97128.16
2022-08-22T11:46:20.682Z,97125.06
2022-08-22T11:48:54.616Z,97118.70
2022-08-22T11:51:46.088Z,97108.16
2022-08-22T11:54:30.890Z,97095.09
2022-08-22T11:57:05.533Z,97097.31
2022-08-22T11:59:43.209Z,97087.91
2022-08-22T12:02:21.431Z,97089.48
2022-08-22T12:04:57.586Z,97094.83
2022-08-22T12:07:32.697Z,97090.80
2022-08-22T12:10:15.307Z,97089.83
2022-08-22T12:12:53.726Z,97087.83
2022-08-22T12:15:24.703Z,97086.92
2022-08-22T12:18:13.486Z,97078.74
2022-08-22T12:20:45.357Z,97081.77
2022-08-22T12:23:16.157Z,97080.54
2022-08-22T12:25:55.808Z,97075.40
2022-08-22T12:28:35.420Z,97078.38
2022-08-22T12:31:06.478Z,97077.48
2022-08-22T12:33:57.585Z,97078.80
2022-08-22T12:36:34.339Z,97079.29
2022-08-22T12:39:24.356Z,97073.61
2022-08-22T12:42:07.619Z,97078.29
2022-08-22T12:44:42.535Z,97073.08
2022-08-22T12:47:22.557Z,97073.58
2022-08-22T12:49:52.558Z,97078.11
2022-08-22T12:52:34.940Z,97078.83
2022-08-22T12:55:03.596Z,97079.55
2022-08-22T12:57:34.295Z,97083.79
2022-08-22T13:00:08.868Z,97076.02
2022-08-22T13:02:41.905Z,97074.96
2022-08-22T13:05:19.886Z,97084.20
2022-08-22T13:07:54.614Z,97083.56
2022-08-22T13:10:26.140Z,97087.54
2022-08-22T13:12:56.831Z,97087.39
2022-08-22T13:15:30.210Z,97081.63
2022-08-22T13:18:18.944Z,97074.70
2022-08-22T13:20:51.173Z,97073.95
2022-08-22T13:23:27.776Z,97072.79
2022-08-22T13:26:01.195Z,97077.51
2022-08-22T13:28:30.906Z,97079.93
2022-08-22T13:31:00.039Z,97069.86
2022-08-22T13:33:33.400Z,97075.02
2022-08-22T13:36:10.951Z,97074.11
2022-08-22T13:38:46.567Z,97079.17
2022-08-22T13:41:34.904Z,97087.08
2022-08-22T13:44:08.873Z,97083.57
2022-08-22T13:46:48.278Z,97087.74
2022-08-22T13:49:31.927Z,97097.20
2022-08-22T13:52:28.936Z,97095.05
2022-08-22T13:55:12.407Z,97096.16
2022-08-22T13:57:52.987Z,97104.21
2022-08-22T14:00:35.800Z,97097.80
2022-08-22T14:03:12.287Z,97094.45
2022-08-22T14:05:43.116Z,97089.22
2022-08-22T14:08:20.453Z,97080.83
2022-08-22T14:10:55.583Z,97083.98
2022-08-22T14:13:36.796Z,97088.51
2022-08-22T14:16:10.286Z,97090.86
2022-08-22T14:18:45.722Z,97078.73
2022-08-22T14:21:17.364Z,97080.23
2022-08-22T14:23:45.898Z,97087.77
2022-08-22T14:26:32.826Z,97088.86
2022-08-22T14:29:05.716Z,97079.61
2022-08-22T14:31:36.109Z,97082.19
2022-08-22T14:34:10.274Z,97080.69
2022-08-22T14:36:38.786Z,97081.67
2022-08-22T14:39:35.758Z,97080.06
2022-08-22T14:42:06.305Z,97078.89
2022-08-22T14:44:55.718Z,97073.63
2022-08-22T14:47:40.387Z,97071.17
2022-08-22T14:50:40.188Z,97068.30
2022-08-22T14:53:19.302Z,97067.95
2022-08-22T14:56:05.655Z,97075.77
2022-08-22T14:58:38.053Z,97077.93
2022-08-22T15:01:13.894Z,97079.34
2022-08-22T15:03:44.281Z,97078.59
2022-08-22T15:06:14.647Z,97078.66
2022-08-22T15:08:46.209Z,97081.00
2022-08-22T15:11:21.240Z,97084.20
2022-08-22T15:13:59.158Z,97087.96
2022-08-22T15:16:36.982Z,97078.25
2022-08-22T15:19:27.257Z,97088.92
2022-08-22T15:22:04.288Z,97096.42
2022-08-22T15:24:32.938Z,97104.80
2022-08-22T15:27:01.112Z,97101.86
2022-08-22T15:29:44.334Z,97103.23
2022-08-22T15:32:12.305Z,97110.64
2022-08-22T15:34:47.583Z,97113.20
2022-08-22T15:37:20.933Z,97119.44
2022-08-22T15:40:02.943Z,97129.87
2022-08-22T15:42:44.322Z,97137.89
2022-08-22T15:45:19.733Z,97141.61
2022-08-22T15:47:50.054Z,97143.78
2022-08-22T15:50:36.988Z,97141.27
2022-08-22T15:53:09.526Z,97137.44
2022-08-22T15:55:37.986Z,97134.11
2022-08-22T15:58:09.265Z,97130.55
2022-08-22T16:00:45.716Z,97128.99
2022-08-22T16:03:24.640Z,97135.50
2022-08-22T16:05:55.791Z,97137.43
2022-08-22T16:08:32.723Z,97142.08
2022-08-22T16:11:03.969Z,97148.38
2022-08-22T16:13:38.064Z,97151.30
2022-08-22T16:16:08.624Z,97160.16
2022-08-22T16:18:39.811Z,97157.56
2022-08-22T16:21:09.116Z,97157.34
2022-08-22T16:23:49.763Z,97159.59
2022-08-22T16:26:37.132Z,97168.26
2022-08-22T16:29:17.300Z,97179.10
2022-08-22T16:31:45.846Z,97188.85
2022-08-22T16:34:16.462Z,97193.95
2022-08-22T16:36:53.659Z,97196.05
2022-08-22T16:39:21.630Z,97191.95
2022-08-22T16:41:52.540Z,97192.98
2022-08-22T16:44:23.164Z,97193.21
2022-08-22T16:46:52.835Z,97193.85
2022-08-22T16:49:32.347Z,97189.64
2022-08-22T16:52:18.986Z,97187.42
2022-08-22T16:54:48.967Z,97183.50
2022-08-22T16:57:20.055Z,97188.02
2022-08-22T17:00:10.104Z,97193.20
2022-08-22T17:03:04.180Z,97196.60
2022-08-22T17:05:45.586Z,97198.67
2022-08-22T17:08:16.628Z,97205.74
2022-08-22T17:11:03.253Z,97215.63
2022-08-22T17:14:06.395Z,97230.40
2022-08-22T17:16:34.139Z,97237.10
2022-08-22T17:19:05.184Z,97227.23
2022-08-22T17:21:39.869Z,97233.66
2022-08-22T17:24:32.270Z,97233.70
2022-08-22T17:27:20.361Z,97245.09
2022-08-22T17:29:54.200Z,97275.68
2022-08-22T17:32:31.174Z,97290.37
2022-08-22T17:35:08.111Z,97302.83
2022-08-22T17:37:54.603Z,97300.48
2022-08-22T17:40:33.663Z,97301.44
2022-08-22T17:43:04.303Z,97297.76
2022-08-22T17:45:34.954Z,97298.95
2022-08-22T17:48:07.937Z,97305.80
2022-08-22T17:50:44.873Z,97310.38
2022-08-22T17:53:22.549Z,97316.56
2022-08-22T17:55:57.925Z,97325.47
2022-08-22T17:58:37.366Z,97330.87
2022-08-22T18:01:14.650Z,97330.35
2022-08-22T18:03:50.646Z,97331.13
2022-08-22T18:06:18.919Z,97330.39
2022-08-22T18:11:46.348Z,97317.45
2022-08-22T18:14:19.832Z,97313.62
2022-08-22T18:16:50.367Z,97302.70
2022-08-22T18:19:24.402Z,97301.26
2022-08-22T18:22:04.316Z,97298.82
2022-08-22T18:24:35.279Z,97292.52
2022-08-22T18:27:06.190Z,97296.59
2022-08-22T18:29:42.851Z,97305.27
2022-08-22T18:32:19.220Z,97304.84
2022-08-22T18:34:56.371Z,97300.54
2022-08-22T18:37:41.677Z,97293.09
2022-08-22T18:40:15.550Z,97287.70
2022-08-22T18:42:47.658Z,97279.77
2022-08-22T18:45:17.413Z,97279.56
2022-08-22T18:47:54.417Z,97290.09
2022-08-22T18:50:28.245Z,97294.98
2022-08-22T18:52:57.617Z,97300.31
2022-08-22T18:55:27.887Z,97298.28
2022-08-22T18:57:55.617Z,97302.94
2022-08-22T19:00:46.324Z,97313.50
2022-08-22T19:03:17.505Z,97320.52
2022-08-22T19:05:45.811Z,97327.45
2022-08-22T19:08:26.316Z,97333.11
2022-08-22T19:11:05.945Z,97334.64
2022-08-22T19:13:52.530Z,97337.66
2022-08-22T19:16:56.009Z,97338.63
2022-08-22T19:19:57.891Z,97336.08
2022-08-22T19:22:28.138Z,97339.23
2022-08-22T19:25:10.706Z,97339.29
2022-08-22T19:27:40.807Z,97341.54
2022-08-22T19:30:28.819Z,97346.58
2022-08-22T19:33:08.646Z,97346.52
2022-08-22T19:35:45.573Z,97349.38
2022-08-22T19:38:33.306Z,97353.35
2022-08-22T19:41:01.728Z,97359.73
2022-08-22T19:43:38.155Z,97362.02
2022-08-22T19:46:08.635Z,97361.84
2022-08-22T19:48:45.394Z,97362.13
2022-08-22T19:51:16.080Z,97363.42
2022-08-22T19:53:51.126Z,97370.97
2022-08-22T19:56:35.903Z,97377.74
2022-08-22T19:59:21.428Z,97374.98
2022-08-22T20:02:07.550Z,97376.44
2022-08-22T20:04:35.264Z,97379.27
2022-08-22T20:07:03.088Z,97387.61
2022-08-22T20:09:59.307Z,97386.55
2022-08-22T20:12:30.358Z,97395.45
2022-08-22T20:15:10.494Z,97399.73
2022-08-22T20:17:40.420Z,97408.06
2022-08-22T20:20:18.415Z,97413.86
2022-08-22T20:23:10.205Z,97420.40
2022-08-22T20:25:49.596Z,97423.85
2022-08-22T20:28:40.238Z,97428.48
2022-08-22T20:31:18.492Z,97430.06
2022-08-22T20:33:47.061Z,97426.35
2022-08-22T20:36:27.600Z,97430.98
2022-08-22T20:39:06.146Z,97431.06
2022-08-22T20:41:36.710Z,97431.23
2022-08-22T20:44:04.971Z,97432.56
2022-08-22T20:46:46.324Z,97435.23
2022-08-22T20:49:33.076Z,97438.72
2022-08-22T20:52:03.465Z,97434.06
2022-08-22T20:54:33.139Z,97427.91
2022-08-22T20:57:02.161Z,97432.17
2022-08-22T20:59:38.952Z,97424.89
2022-08-22T21:02:10.605Z,97420.60
2022-08-22T21:05:00.280Z,97417.71
2022-08-22T21:07:30.227Z,97424.16
2022-08-22T21:10:22.583Z,97427.76
2022-08-22T21:13:09.691Z,97424.36
2022-08-22T21:15:45.433Z,97427.33
2022-08-22T21:18:14.919Z,97433.05
2022-08-22T21:20:42.911Z,97434.46
2022-08-22T21:23:13.998Z,97430.20
2022-08-22T21:25:57.606Z,97428.36
2022-08-22T21:28:31.246Z,97427.41
2022-08-22T21:31:01.806Z,97427.79
2022-08-22T21:33:29.640Z,97426.24
2022-08-22T21:35:59.335Z,97425.36
2022-08-22T21:38:27.735Z,97420.73
2022-08-22T21:41:01.927Z,97419.91
2022-08-22T21:43:32.852Z,97418.52
2022-08-22T21:46:00.879Z,97413.25
2022-08-22T21:48:35.004Z,97411.61
2022-08-22T21:51:21.555Z,97414.39
2022-08-22T21:53:49.774Z,97415.99
2022-08-22T21:56:37.526Z,97417.08
2022-08-22T21:59:24.979Z,97414.02
2022-08-22T22:01:53.631Z,97408.30
2022-08-22T22:04:23.307Z,97405.73
2022-08-22T22:06:51.131Z,97406.70
2022-08-22T22:09:19.207Z,97402.74
2022-08-22T22:11:47.340Z,97401.54
2022-08-22T22:14:15.168Z,97397.46
2022-08-22T22:16:43.015Z,97392.02
2022-08-22T22:19:11.015Z,97391.11
2022-08-22T22:21:38.910Z,97390.33
2022-08-22T22:24:06.975Z,97392.21
2022-08-22T22:26:34.884Z,97393.86
2022-08-22T22:29:03.388Z,97393.95
2022-08-22T22:31:31.735Z,97399.61
2022-08-22T22:34:01.972Z,97400.02
2022-08-22T22:36:30.228Z,97400.44
2022-08-22T22:38:58.878Z,97400.26
2022-08-22T22:41:27.053Z,97397.95
2022-08-22T22:43:55.445Z,97405.89
2022-08-22T22:46:23.790Z,97414.11
2022-08-22T22:48:51.861Z,97413.30
2022-08-22T22:51:19.992Z,97413.35
2022-08-22T22:53:48.099Z,97411.73
2022-08-22T22:56:21.238Z,97409.44
2022-08-22T22:59:00.630Z,97408.41
2022-08-22T23:01:31.606Z,97404.50
2022-08-22T23:04:05.590Z,97394.73
2022-08-22T23:06:34.655Z,97389.48
2022-08-22T23:09:02.671Z,97389.02
2022-08-22T23:11:31.159Z,97389.52
2022-08-22T23:13:59.007Z,97388.05
2022-08-22T23:16:28.828Z,97383.10
2022-08-22T23:18:56.891Z,97384.48
2022-08-22T23:21:26.627Z,97389.69
2022-08-22T23:23:55.455Z,97392.92
2022-08-22T23:26:23.953Z,97388.63
2022-08-22T23:28:52.181Z,97388.45
2022-08-22T23:31:31.251Z,97388.44
2022-08-22T23:34:05.165Z,97387.89
2022-08-22T23:36:33.454Z,97386.91
2022-08-22T23:39:01.303Z,97387.38
2022-08-22T23:41:29.367Z,97383.73
2022-08-22T23:43:57.426Z,97383.04
2022-08-22T23:46:25.939Z,97388.18
2022-08-22T23:48:54.500Z,97393.45
2022-08-22T23:51:24.030Z,97393.14
2022-08-22T23:53:52.706Z,97395.86
2022-08-22T23:56:29.488Z,97396.73
2022-08-22T23:58:58.390Z,97390.90
